createdAt,value
2022-09-28T00:00:02.674Z,10
2022-09-28T00:05:01.961Z,10.1
2022-09-28T00:10:01.959Z,10.1
2022-09-28T00:15:02.106Z,10.1
2022-09-28T00:20:03.102Z,10.2
2022-09-28T00:25:02.345Z,10.1
2022-09-28T00:30:02.570Z,10.1
2022-09-28T00:35:01.650Z,10.2
2022-09-28T00:40:01.756Z,10.2
2022-09-28T00:45:01.776Z,10.2
2022-09-28T00:50:01.965Z,10.2
2022-09-28T00:55:02.054Z,10.3
2022-09-28T01:00:02.298Z,10.2
2022-09-28T01:05:03.412Z,10.2
2022-09-28T01:10:02.528Z,10.1
2022-09-28T01:15:01.734Z,10.1
2022-09-28T01:20:01.830Z,10
2022-09-28T01:25:02.345Z,10
2022-09-28T01:30:02.086Z,10
2022-09-28T01:35:03.076Z,9.9
2022-09-28T01:40:02.352Z,9.9
2022-09-28T01:45:01.890Z,9.9
2022-09-28T01:50:02.921Z,9.9
2022-09-28T01:55:02.193Z,9.9
2022-09-28T02:00:02.438Z,9.9
2022-09-28T02:05:03.335Z,9.9
2022-09-28T02:10:02.633Z,9.9
2022-09-28T02:15:02.081Z,9.9
2022-09-28T02:20:01.909Z,9.9
2022-09-28T02:25:02.059Z,9.9
2022-09-28T02:30:02.261Z,10
2022-09-28T02:35:03.213Z,10
2022-09-28T02:40:02.621Z,10
2022-09-28T02:45:01.663Z,10
2022-09-28T02:50:02.693Z,10
2022-09-28T02:55:02.108Z,9.9
2022-09-28T03:00:02.523Z,9.9
2022-09-28T03:05:18.010Z,9.9
2022-09-28T03:10:04.704Z,9.9
2022-09-28T03:15:07.942Z,9.9
2022-09-28T03:20:05.835Z,9.9
2022-09-28T03:25:03.395Z,9.9
2022-09-28T03:30:02.475Z,9.9
2022-09-28T03:35:05.057Z,9.9
2022-09-28T03:40:02.973Z,10
2022-09-28T03:45:02.750Z,9.9
2022-09-28T03:50:14.596Z,9.9
2022-09-28T03:55:05.188Z,9.9
2022-09-28T04:00:01.842Z,9.9
2022-09-28T04:05:03.014Z,9.9
2022-09-28T04:10:02.179Z,9.9
2022-09-28T04:15:02.747Z,10
2022-09-28T04:20:02.672Z,10
2022-09-28T04:25:01.758Z,10
2022-09-28T04:30:02.271Z,10
2022-09-28T04:35:03.447Z,9.9
2022-09-28T04:40:02.679Z,9.9
2022-09-28T04:45:01.764Z,9.9
2022-09-28T04:50:02.858Z,9.9
2022-09-28T04:55:02.945Z,9.9
2022-09-28T05:00:02.367Z,9.8
2022-09-28T05:05:03.879Z,9.8
2022-09-28T05:10:02.608Z,9.8
2022-09-28T05:15:01.682Z,9.8
2022-09-28T05:20:01.876Z,9.9
2022-09-28T05:25:02.865Z,9.9
2022-09-28T05:30:02.192Z,9.8
2022-09-28T05:35:03.244Z,9.9
2022-09-28T05:40:03.810Z,9.9
2022-09-28T05:45:02.320Z,9.9
2022-09-28T05:50:02.379Z,9.9
2022-09-28T05:55:02.964Z,9.9
2022-09-28T06:00:03.789Z,9.9
2022-09-28T06:05:02.680Z,9.9
2022-09-28T06:10:02.878Z,9.9
2022-09-28T06:15:03.214Z,9.9
2022-09-28T06:20:03.992Z,9.8
2022-09-28T06:25:02.368Z,9.8
2022-09-28T06:30:02.597Z,9.8
2022-09-28T06:35:02.717Z,9.8
2022-09-28T06:40:02.971Z,9.8
2022-09-28T06:45:01.532Z,9.7
2022-09-28T06:50:01.847Z,9.8
2022-09-28T06:55:01.947Z,9.9
2022-09-28T07:00:02.368Z,10.1
2022-09-28T07:05:03.506Z,10.2
2022-09-28T07:10:03.648Z,10.2
2022-09-28T07:15:02.909Z,10.3
2022-09-28T07:20:11.281Z,10.3
2022-09-28T07:25:02.092Z,10.3
2022-09-28T07:30:03.354Z,10.3
2022-09-28T07:35:03.411Z,10.4
2022-09-28T07:40:03.535Z,10.4
2022-09-28T07:45:02.957Z,10.6
2022-09-28T07:50:01.896Z,10.7
2022-09-28T07:55:06.102Z,10.8
2022-09-28T08:00:02.562Z,10.8
2022-09-28T08:05:03.502Z,11.1
2022-09-28T08:10:02.672Z,11.1
2022-09-28T08:15:03.219Z,11.3
2022-09-28T08:20:02.118Z,11.6
2022-09-28T08:25:02.178Z,11.6
2022-09-28T08:30:02.426Z,11.5
2022-09-28T08:35:03.511Z,11.7
2022-09-28T08:40:03.868Z,12
2022-09-28T08:45:02.911Z,12.2
2022-09-28T08:50:02.000Z,12.4
2022-09-28T08:55:02.118Z,12.4
2022-09-28T09:00:02.331Z,12.7
2022-09-28T09:05:03.400Z,12.6
2022-09-28T09:10:03.537Z,13
2022-09-28T09:15:02.897Z,12.9
2022-09-28T09:20:02.044Z,12.7
2022-09-28T09:25:02.044Z,12.5
2022-09-28T09:30:02.837Z,12.5
2022-09-28T09:35:03.408Z,12.6
2022-09-28T09:40:03.436Z,12.8
2022-09-28T09:45:03.182Z,13.4
2022-09-28T09:50:04.017Z,13.8
2022-09-28T09:55:02.425Z,14
2022-09-28T10:00:02.463Z,14.2
2022-09-28T10:05:03.377Z,14.2
2022-09-28T10:10:03.675Z,14
2022-09-28T10:15:03.141Z,14.2
2022-09-28T10:20:01.969Z,14.6
2022-09-28T10:25:02.087Z,14.1
2022-09-28T10:30:02.330Z,14
2022-09-28T10:35:03.419Z,14.5
2022-09-28T10:40:03.488Z,14.5
2022-09-28T10:45:02.897Z,14.9
2022-09-28T10:50:01.956Z,15.2
2022-09-28T10:55:02.730Z,15.2
2022-09-28T11:00:01.761Z,14.6
2022-09-28T11:05:03.387Z,14.3
2022-09-28T11:10:03.122Z,13.9
2022-09-28T11:15:03.689Z,13.5
2022-09-28T11:20:02.499Z,13.6
2022-09-28T11:25:02.717Z,13.7
2022-09-28T11:30:01.767Z,13.7
2022-09-28T11:35:02.888Z,13.6
2022-09-28T11:40:03.128Z,13.4
2022-09-28T11:45:03.313Z,13.4
2022-09-28T11:50:02.420Z,13.7
2022-09-28T11:55:02.763Z,14
2022-09-28T12:00:02.788Z,14.3
2022-09-28T12:05:02.886Z,14.4
2022-09-28T12:10:02.946Z,14.3
2022-09-28T12:20:02.427Z,15.2
2022-09-28T12:25:02.595Z,15.4
2022-09-28T12:30:02.824Z,15.6
2022-09-28T12:35:02.783Z,16.2
2022-09-28T12:40:03.266Z,16.3
2022-09-28T12:45:03.320Z,15.9
2022-09-28T12:55:02.060Z,16.3
2022-09-28T13:00:02.170Z,16.6
2022-09-28T13:05:03.399Z,16.6
2022-09-28T13:10:03.378Z,16.5
2022-09-28T13:15:03.807Z,15.7
2022-09-28T13:20:01.739Z,15.4
2022-09-28T13:25:01.900Z,15.1
2022-09-28T13:30:02.266Z,14.7
2022-09-28T13:35:03.282Z,14.5
2022-09-28T13:40:03.279Z,14.4
2022-09-28T13:45:03.703Z,14.4
2022-09-28T13:50:01.684Z,14.2
2022-09-28T13:55:01.893Z,14.2
2022-09-28T14:00:02.255Z,14.1
2022-09-28T14:05:03.400Z,14
2022-09-28T14:10:03.985Z,13.9
2022-09-28T14:15:03.736Z,14.5
2022-09-28T14:20:02.843Z,15.2
2022-09-28T14:25:02.262Z,15.7
2022-09-28T14:30:02.058Z,16.2
2022-09-28T14:35:03.603Z,16.4
2022-09-28T14:40:03.293Z,16.3
2022-09-28T14:45:06.050Z,16.3
2022-09-28T14:50:02.625Z,16.5
2022-09-28T14:55:01.779Z,16.4
2022-09-28T15:00:02.320Z,16.2
2022-09-28T15:05:10.635Z,16.2
2022-09-28T15:10:03.465Z,15.8
2022-09-28T15:15:03.643Z,15.7
2022-09-28T15:20:02.590Z,15.4
2022-09-28T15:25:02.874Z,15.3
2022-09-28T15:30:02.354Z,15
2022-09-28T15:35:03.299Z,14.9
2022-09-28T15:40:03.341Z,14.7
2022-09-28T15:45:03.651Z,14.6
2022-09-28T15:50:01.720Z,14.4
2022-09-28T15:55:01.937Z,14.3
2022-09-28T16:00:02.093Z,14.2
2022-09-28T16:05:03.145Z,14.2
2022-09-28T16:10:03.538Z,14.3
2022-09-28T16:15:03.571Z,14.2
2022-09-28T16:20:02.725Z,14.1
2022-09-28T16:25:01.683Z,14
2022-09-28T16:30:03.488Z,13.7
2022-09-28T16:35:03.027Z,13.5
2022-09-28T16:40:03.173Z,13.4
2022-09-28T16:45:03.482Z,13.2
2022-09-28T16:50:02.657Z,13
2022-09-28T16:55:03.182Z,12.9
2022-09-28T17:00:03.792Z,12.7
2022-09-28T17:05:02.688Z,12.5
2022-09-28T17:10:02.873Z,12.3
2022-09-28T17:15:03.295Z,12.3
2022-09-28T17:20:02.345Z,12.1
2022-09-28T17:25:02.414Z,12.1
2022-09-28T17:30:02.625Z,11.9
2022-09-28T17:35:22.878Z,11.7
2022-09-28T17:40:02.952Z,11.5
2022-09-28T17:45:03.205Z,11.4
2022-09-28T17:50:02.296Z,11.3
2022-09-28T17:55:02.395Z,11.1
2022-09-28T18:00:03.657Z,11
2022-09-28T18:05:03.246Z,10.9
2022-09-28T18:10:03.641Z,10.8
2022-09-28T18:15:03.265Z,10.7
2022-09-28T18:20:02.198Z,10.5
2022-09-28T18:25:02.402Z,10.5
2022-09-28T18:30:02.622Z,10.4
2022-09-28T18:35:02.653Z,10.4
2022-09-28T18:40:02.952Z,10.3
2022-09-28T18:45:03.689Z,10.2
2022-09-28T18:50:06.785Z,10.1
2022-09-28T18:55:02.499Z,10.1
2022-09-28T19:00:02.826Z,10
2022-09-28T19:05:03.016Z,9.9
2022-09-28T19:10:03.061Z,9.9
2022-09-28T19:15:05.620Z,9.8
2022-09-28T19:20:03.402Z,9.8
2022-09-28T19:25:02.741Z,9.7
2022-09-28T19:30:02.051Z,9.6
2022-09-28T19:35:03.138Z,9.6
2022-09-28T19:40:03.339Z,9.5
2022-09-28T19:45:04.107Z,9.4
2022-09-28T19:50:02.139Z,9.4
2022-09-28T19:55:02.908Z,9.3
2022-09-28T20:00:03.062Z,9.3
2022-09-28T20:05:02.947Z,9.2
2022-09-28T20:10:03.077Z,9.2
2022-09-28T20:15:03.459Z,9.2
2022-09-28T20:20:03.782Z,9.1
2022-09-28T20:25:02.648Z,9.1
2022-09-28T20:30:03.076Z,9
2022-09-28T20:35:02.931Z,9
2022-09-28T20:40:03.113Z,8.9
2022-09-28T20:45:03.569Z,8.8
2022-09-28T20:50:02.067Z,8.7
2022-09-28T20:55:02.288Z,8.7
2022-09-28T21:00:02.490Z,8.7
2022-09-28T21:05:03.362Z,8.7
2022-09-28T21:10:03.053Z,8.7
2022-09-28T21:15:05.848Z,8.6
2022-09-28T21:20:02.500Z,8.6
2022-09-28T21:25:01.888Z,8.6
2022-09-28T21:30:02.492Z,8.6
2022-09-28T21:35:02.680Z,8.5
2022-09-28T21:40:02.912Z,8.4
2022-09-28T21:45:02.201Z,8.4
2022-09-28T21:50:02.307Z,8.4
2022-09-28T21:55:02.067Z,8.3
2022-09-28T22:00:02.625Z,8.3
2022-09-28T22:05:02.401Z,8.3
2022-09-28T22:10:02.557Z,8.3
2022-09-28T22:15:02.500Z,8.2
2022-09-28T22:20:02.588Z,8.1
2022-09-28T22:25:01.836Z,8.3
2022-09-28T22:30:02.068Z,8.1
2022-09-28T22:35:03.048Z,8
2022-09-28T22:40:02.360Z,7.9
2022-09-28T22:45:02.528Z,7.9
2022-09-28T22:50:02.621Z,7.9
2022-09-28T22:55:02.205Z,7.9
2022-09-28T23:00:02.067Z,7.9
2022-09-28T23:05:02.682Z,7.9
2022-09-28T23:10:04.360Z,7.9
2022-09-28T23:15:02.338Z,7.9
2022-09-28T23:20:02.428Z,7.8
2022-09-28T23:25:05.521Z,7.8
2022-09-28T23:30:02.528Z,7.8
2022-09-28T23:35:01.909Z,7.8
2022-09-28T23:40:02.094Z,7.8
2022-09-28T23:45:02.211Z,7.8
2022-09-28T23:50:01.952Z,7.7
2022-09-28T23:55:02.072Z,7.7
